createdAt,value
2023-03-17T00:01:13.411Z,64.50
2023-03-17T00:05:04.836Z,64.40
2023-03-17T00:08:53.878Z,64.20
2023-03-17T00:12:39.981Z,64.40
2023-03-17T00:16:29.384Z,64.40
2023-03-17T00:20:29.297Z,64.40
2023-03-17T00:24:16.844Z,64.50
2023-03-17T00:28:10.181Z,64.40
2023-03-17T00:32:01.004Z,64.40
2023-03-17T00:36:10.033Z,64.40
2023-03-17T00:39:56.657Z,64.60
2023-03-17T00:43:59.336Z,64.50
2023-03-17T00:47:53.571Z,64.60
2023-03-17T00:51:39.645Z,64.60
2023-03-17T00:55:26.061Z,64.50
2023-03-17T00:59:39.342Z,64.50
2023-03-17T01:03:28.797Z,64.60
2023-03-17T01:07:20.685Z,64.60
2023-03-17T01:11:22.357Z,64.50
2023-03-17T01:15:09.112Z,64.60
2023-03-17T01:18:58.210Z,64.60
2023-03-17T01:22:47.776Z,64.60
2023-03-17T01:26:44.534Z,64.60
2023-03-17T01:30:36.292Z,64.60
2023-03-17T01:34:30.312Z,64.60
2023-03-17T01:38:19.671Z,64.60
2023-03-17T01:42:09.315Z,64.60
2023-03-17T01:46:19.350Z,64.70
2023-03-17T01:50:17.195Z,64.60
2023-03-17T01:54:27.127Z,64.70
2023-03-17T01:58:19.928Z,64.60
2023-03-17T02:02:10.858Z,64.60
2023-03-17T02:06:06.401Z,64.60
2023-03-17T02:09:54.689Z,64.70
2023-03-17T02:13:44.016Z,64.70
2023-03-17T02:17:34.249Z,64.70
2023-03-17T02:21:41.450Z,64.70
2023-03-17T02:25:29.164Z,64.60
2023-03-17T02:29:15.860Z,64.70
2023-03-17T02:33:05.780Z,64.60
2023-03-17T02:36:55.147Z,64.70
2023-03-17T02:40:41.244Z,64.70
2023-03-17T02:44:34.854Z,64.70
2023-03-17T02:48:26.679Z,64.70
2023-03-17T02:52:18.665Z,64.70
2023-03-17T02:56:11.412Z,64.70
2023-03-17T02:59:57.593Z,64.70
2023-03-17T03:03:53.881Z,64.70
2023-03-17T03:07:46.239Z,64.70
2023-03-17T03:11:35.906Z,64.70
2023-03-17T03:15:28.016Z,64.70
2023-03-17T03:19:16.720Z,64.70
2023-03-17T03:23:09.117Z,64.70
2023-03-17T03:26:58.036Z,64.70
2023-03-17T03:30:47.899Z,64.70
2023-03-17T03:34:33.969Z,64.70
2023-03-17T03:38:26.893Z,64.70
2023-03-17T03:42:16.910Z,64.70
2023-03-17T03:46:03.183Z,64.70
2023-03-17T03:49:57.723Z,64.70
2023-03-17T03:53:46.725Z,64.70
2023-03-17T03:57:33.010Z,64.70
2023-03-17T04:01:27.780Z,64.70
2023-03-17T04:05:21.772Z,64.70
2023-03-17T04:09:11.459Z,64.70
2023-03-17T04:13:00.255Z,64.70
2023-03-17T04:16:51.761Z,64.60
2023-03-17T04:20:46.954Z,64.60
2023-03-17T04:24:39.445Z,64.70
2023-03-17T04:28:25.568Z,64.60
2023-03-17T04:32:15.504Z,64.60
2023-03-17T04:36:08.601Z,64.60
2023-03-17T04:40:00.632Z,64.60
2023-03-17T04:43:50.769Z,64.70
2023-03-17T04:47:37.559Z,64.60
2023-03-17T04:51:27.613Z,64.60
2023-03-17T04:55:24.020Z,64.70
2023-03-17T04:59:13.132Z,65.30
2023-03-17T05:03:02.378Z,64.70
2023-03-17T05:06:53.592Z,64.60
2023-03-17T05:10:42.705Z,64.70
2023-03-17T05:14:34.772Z,64.60
2023-03-17T05:18:21.852Z,64.60
2023-03-17T05:22:11.050Z,64.70
2023-03-17T05:26:00.438Z,64.60
2023-03-17T05:29:50.118Z,64.70
2023-03-17T05:33:39.178Z,64.60
2023-03-17T05:37:33.759Z,64.70
2023-03-17T05:41:26.542Z,64.70
2023-03-17T05:45:13.789Z,64.60
2023-03-17T05:48:59.827Z,64.60
2023-03-17T05:52:48.581Z,64.60
2023-03-17T05:56:35.598Z,64.60
2023-03-17T06:00:25.651Z,64.60
2023-03-17T06:04:11.549Z,64.60
2023-03-17T06:08:01.282Z,64.70
2023-03-17T06:11:47.815Z,64.60
2023-03-17T06:15:38.963Z,65.20
2023-03-17T06:19:24.283Z,64.60
2023-03-17T06:23:14.374Z,64.60
2023-03-17T06:27:02.989Z,64.60
2023-03-17T06:30:48.823Z,64.60
2023-03-17T06:34:37.398Z,64.70
2023-03-17T06:38:23.783Z,64.60
2023-03-17T06:42:12.735Z,64.60
2023-03-17T06:45:58.524Z,64.60
2023-03-17T06:49:44.323Z,64.60
2023-03-17T06:53:30.167Z,64.60
2023-03-17T06:57:16.001Z,64.50
2023-03-17T07:01:05.800Z,64.60
2023-03-17T07:04:51.606Z,64.60
2023-03-17T07:08:38.074Z,64.60
2023-03-17T07:12:24.363Z,64.60
2023-03-17T07:16:11.385Z,64.60
2023-03-17T07:20:01.005Z,64.60
2023-03-17T07:23:46.920Z,64.60
2023-03-17T07:27:35.964Z,65.30
2023-03-17T07:31:21.650Z,64.60
2023-03-17T07:35:09.961Z,64.60
2023-03-17T07:38:55.559Z,64.70
2023-03-17T07:42:41.175Z,64.60
2023-03-17T07:46:27.881Z,64.60
2023-03-17T07:50:14.156Z,64.60
2023-03-17T07:54:05.322Z,64.60
2023-03-17T07:57:51.301Z,64.60
2023-03-17T08:01:37.964Z,64.60
2023-03-17T08:05:23.845Z,64.50
2023-03-17T08:09:10.635Z,64.60
2023-03-17T08:12:56.264Z,64.50
2023-03-17T08:16:43.070Z,64.50
2023-03-17T08:20:28.913Z,64.60
2023-03-17T08:24:14.716Z,64.60
2023-03-17T08:28:00.388Z,64.60
2023-03-17T08:31:46.821Z,64.50
2023-03-17T08:35:33.001Z,64.60
2023-03-17T08:39:18.979Z,64.60
2023-03-17T08:43:04.621Z,64.50
2023-03-17T08:46:51.453Z,64.50
2023-03-17T08:50:37.370Z,64.60
2023-03-17T08:54:23.238Z,64.50
2023-03-17T08:58:09.111Z,65.10
2023-03-17T09:01:54.906Z,64.60
2023-03-17T09:05:40.578Z,64.60
2023-03-17T09:09:25.357Z,64.50
2023-03-17T09:13:11.069Z,64.50
2023-03-17T09:16:57.203Z,64.50
2023-03-17T09:20:43.276Z,64.50
2023-03-17T09:24:28.877Z,64.50
2023-03-17T09:28:17.820Z,64.50
2023-03-17T09:32:03.686Z,64.50
2023-03-17T09:35:49.904Z,64.50
2023-03-17T09:39:35.059Z,64.50
2023-03-17T09:43:55.743Z,64.50
2023-03-17T09:47:58.469Z,64.40
2023-03-17T09:51:46.990Z,64.40
2023-03-17T09:55:35.266Z,64.40
2023-03-17T09:59:32.171Z,64.40
2023-03-17T10:03:18.007Z,64.40
2023-03-17T10:07:08.948Z,64.40
2023-03-17T10:11:06.015Z,64.40
2023-03-17T10:15:02.237Z,64.40
2023-03-17T10:18:51.341Z,64.40
2023-03-17T10:23:00.012Z,64.40
2023-03-17T10:26:59.687Z,64.50
2023-03-17T10:30:45.863Z,64.50
2023-03-17T10:34:36.645Z,64.40
2023-03-17T10:38:28.587Z,64.40
2023-03-17T10:42:22.654Z,64.50
2023-03-17T10:46:26.323Z,64.40
2023-03-17T10:50:34.025Z,64.40
2023-03-17T10:54:24.961Z,64.40
2023-03-17T10:58:16.362Z,64.50
2023-03-17T11:02:16.407Z,64.50
2023-03-17T11:06:20.029Z,64.40
2023-03-17T11:10:07.669Z,64.40
2023-03-17T11:13:53.414Z,65.10
2023-03-17T11:18:33.345Z,64.50
2023-03-17T11:22:36.985Z,64.50
2023-03-17T11:26:34.786Z,64.40
2023-03-17T11:30:59.018Z,64.40
2023-03-17T11:35:14.649Z,64.40
2023-03-17T11:39:27.749Z,64.50
2023-03-17T11:43:19.503Z,64.50
2023-03-17T11:47:30.370Z,64.50
2023-03-17T11:51:15.799Z,64.50
2023-03-17T11:55:14.886Z,64.60
2023-03-17T11:59:07.528Z,64.70
2023-03-17T12:03:22.485Z,64.70
2023-03-17T12:07:25.118Z,64.80
2023-03-17T12:11:15.331Z,65.00
2023-03-17T12:15:02.862Z,64.90
2023-03-17T12:19:17.827Z,64.80
2023-03-17T12:23:17.697Z,64.90
2023-03-17T12:27:18.901Z,64.90
2023-03-17T12:31:20.420Z,64.90
2023-03-17T12:35:36.811Z,64.90
2023-03-17T12:39:23.660Z,64.90
2023-03-17T12:43:21.406Z,65.10
2023-03-17T12:47:30.946Z,65.00
2023-03-17T12:51:43.217Z,65.10
2023-03-17T12:55:34.021Z,65.00
2023-03-17T12:59:27.956Z,65.00
2023-03-17T13:03:32.645Z,65.10
2023-03-17T13:07:35.445Z,65.10
2023-03-17T13:11:54.725Z,65.10
2023-03-17T13:15:43.162Z,65.00
2023-03-17T13:19:34.305Z,65.00
2023-03-17T13:23:23.852Z,65.00
2023-03-17T13:27:17.937Z,65.10
2023-03-17T13:31:34.671Z,65.10
2023-03-17T13:35:22.574Z,65.10
2023-03-17T13:39:50.547Z,65.00
2023-03-17T13:43:54.725Z,65.10
2023-03-17T13:47:45.441Z,65.00
2023-03-17T13:51:35.694Z,65.10
2023-03-17T13:55:20.773Z,65.10
2023-03-17T13:59:07.607Z,65.00
2023-03-17T14:03:01.430Z,65.00
2023-03-17T14:06:47.802Z,65.10
2023-03-17T14:10:36.146Z,65.10
2023-03-17T14:14:32.467Z,65.10
2023-03-17T14:18:25.616Z,65.20
2023-03-17T14:22:28.144Z,65.10
2023-03-17T14:26:14.500Z,65.10
2023-03-17T14:30:06.841Z,65.20
2023-03-17T14:34:01.497Z,65.20
2023-03-17T14:37:50.111Z,65.20
2023-03-17T14:41:38.038Z,65.30
2023-03-17T14:46:06.233Z,65.30
2023-03-17T14:49:53.758Z,65.30
2023-03-17T14:53:44.730Z,65.30
2023-03-17T14:57:34.390Z,65.40
2023-03-17T15:01:49.229Z,65.30
2023-03-17T15:05:43.664Z,65.40
2023-03-17T15:09:33.907Z,65.40
2023-03-17T15:13:18.728Z,65.40
2023-03-17T15:17:16.016Z,65.30
2023-03-17T15:21:04.545Z,65.30
2023-03-17T15:25:01.957Z,65.40
2023-03-17T15:28:47.733Z,65.40
2023-03-17T15:32:33.914Z,65.40
2023-03-17T15:36:31.820Z,65.40
2023-03-17T15:40:18.612Z,65.50
2023-03-17T15:44:05.304Z,65.50
2023-03-17T15:47:51.400Z,65.40
2023-03-17T15:51:37.399Z,65.40
2023-03-17T15:55:31.307Z,65.50
2023-03-17T15:59:16.499Z,65.50
2023-03-17T16:03:15.533Z,65.60
2023-03-17T16:07:01.326Z,65.50
2023-03-17T16:10:47.380Z,65.60
2023-03-17T16:14:32.646Z,65.50
2023-03-17T16:18:20.955Z,65.50
2023-03-17T16:22:06.326Z,65.60
2023-03-17T16:25:53.900Z,65.50
2023-03-17T16:29:41.026Z,65.60
2023-03-17T16:33:42.425Z,65.60
2023-03-17T16:37:27.935Z,65.50
2023-03-17T16:41:26.698Z,65.60
2023-03-17T16:45:29.023Z,65.60
2023-03-17T16:49:24.900Z,65.70
2023-03-17T16:53:10.614Z,65.50
2023-03-17T16:56:56.168Z,65.50
2023-03-17T17:00:41.736Z,65.60
2023-03-17T17:04:27.191Z,65.60
2023-03-17T17:08:12.435Z,65.50
2023-03-17T17:12:00.233Z,65.60
2023-03-17T17:15:46.280Z,65.60
2023-03-17T17:19:31.516Z,65.60
2023-03-17T17:23:21.560Z,65.70
2023-03-17T17:27:07.221Z,65.60
2023-03-17T17:30:54.348Z,65.50
2023-03-17T17:34:40.161Z,65.60
2023-03-17T17:38:29.458Z,65.70
2023-03-17T17:42:15.219Z,65.80
2023-03-17T17:46:00.965Z,65.70
2023-03-17T17:49:46.769Z,65.70
2023-03-17T17:53:32.862Z,65.70
2023-03-17T17:57:18.697Z,65.70
2023-03-17T18:01:06.240Z,65.70
2023-03-17T18:04:52.824Z,65.70
2023-03-17T18:08:39.444Z,66.30
2023-03-17T18:12:24.271Z,65.70
2023-03-17T18:16:14.250Z,65.80
2023-03-17T18:20:02.411Z,65.70
2023-03-17T18:23:51.514Z,65.70
2023-03-17T19:47:42.315Z,65.90
2023-03-17T19:51:29.303Z,66.00
2023-03-17T19:55:12.010Z,66.00
2023-03-17T19:58:57.851Z,65.90
2023-03-17T20:02:43.052Z,65.90
2023-03-17T20:06:28.810Z,66.00
2023-03-17T20:25:11.904Z,66.10
2023-03-17T20:39:09.768Z,66.30
2023-03-17T20:42:52.504Z,66.20
2023-03-17T21:28:21.561Z,66.20
2023-03-17T21:32:04.790Z,66.20
2023-03-17T21:35:47.210Z,66.30
2023-03-17T21:39:32.079Z,66.30
2023-03-17T21:43:16.975Z,66.30
2023-03-17T21:47:07.439Z,66.40
2023-03-17T21:50:52.262Z,66.40
2023-03-17T21:54:36.375Z,66.40
2023-03-17T21:58:21.670Z,66.40
2023-03-17T22:02:06.879Z,66.50
2023-03-17T22:05:52.458Z,66.40
2023-03-17T22:09:38.436Z,66.50
2023-03-17T22:13:24.043Z,66.50
2023-03-17T22:17:09.998Z,66.50
2023-03-17T22:20:59.255Z,66.50
2023-03-17T22:24:44.178Z,66.60
2023-03-17T22:28:28.880Z,66.60
2023-03-17T22:32:14.457Z,66.50
2023-03-17T22:35:59.466Z,66.50
2023-03-17T22:39:44.656Z,66.60
2023-03-17T22:43:29.677Z,66.50
2023-03-17T22:47:17.177Z,66.60
2023-03-17T22:51:07.245Z,66.50
2023-03-17T22:54:51.696Z,66.60
2023-03-17T22:58:37.462Z,66.60
2023-03-17T23:02:20.858Z,66.60
2023-03-17T23:06:06.611Z,66.60
2023-03-17T23:09:51.941Z,66.70
2023-03-17T23:13:36.641Z,66.60
2023-03-17T23:17:21.115Z,67.20
2023-03-17T23:21:08.485Z,66.70
2023-03-17T23:24:53.350Z,66.70
2023-03-17T23:28:35.062Z,66.70
2023-03-17T23:32:16.963Z,66.60
2023-03-17T23:35:58.715Z,66.60
2023-03-17T23:39:40.502Z,66.60
2023-03-17T23:43:22.661Z,66.60
2023-03-17T23:47:08.093Z,66.60
2023-03-17T23:50:57.363Z,66.60
2023-03-17T23:54:43.081Z,66.60
2023-03-17T23:58:28.604Z,66.60
